METAR Data
IDs: Format: Raw Decoded Include TAF

Data at: 1020 UTC 26 Sep 2018

KPHN 261015Z AUTO 00000KT 10SM OVC020 19/17 A2982 RMK AO2
KPHN 260955Z AUTO 00000KT 10SM OVC024 19/17 A2981 RMK AO2
KPHN 260935Z AUTO 00000KT 10SM BKN024 OVC029 19/17 A2981 RMK AO2
KPHN 260915Z AUTO 25003KT 10SM BKN022 OVC029 19/17 A2980 RMK AO2
KPHN 260855Z AUTO 24004KT 10SM BKN022 19/17 A2980 RMK AO2
KPHN 260835Z AUTO 25004KT 10SM SCT022 BKN036 19/17 A2979 RMK AO2
KPHN 260815Z AUTO 24005KT 10SM CLR 20/17 A2979 RMK AO2
KPHN 260755Z AUTO 22004KT 10SM CLR 20/18 A2979 RMK AO2
KPHN 260735Z AUTO 22007KT 190V250 10SM CLR 20/18 A2979 RMK AO2
KPHN 260715Z AUTO 22005KT 10SM CLR 20/18 A2979 RMK AO2
KPHN 260655Z AUTO 22006KT 10SM CLR 21/19 A2979 RMK AO2
KPHN 260635Z AUTO 22004KT 10SM CLR 21/19 A2980 RMK AO2
KPHN 260615Z AUTO 21006KT 10SM CLR 21/19 A2979 RMK AO2
KPHN 260555Z AUTO 21006KT 10SM SCT016 SCT022 21/20 A2980 RMK AO2
KPHN 260535Z AUTO 21007KT 180V240 10SM SCT008 BKN016 BKN024 21/20 A2980 RMK AO2
KPHN 260515Z AUTO 22006G14KT 190V260 10SM BKN008 OVC014 21/20 A2981 RMK AO2
KPHN 260455Z AUTO 20008KT 10SM BKN008 OVC014 21/20 A2980 RMK AO2
KPHN 260435Z AUTO 20011G16KT 10SM BKN008 20/19 A2980 RMK AO2
KPHN 260415Z AUTO 18007KT 10SM SCT008 20/19 A2979 RMK AO2
KPHN 260355Z AUTO 21005KT 10SM CLR 20/19 A2980 RMK AO2
KPHN 260335Z AUTO 19008KT 10SM CLR 20/19 A2980 RMK AO2
KPHN 260315Z AUTO 19006KT 10SM SCT085 20/19 A2982 RMK AO2
KPHN 260255Z AUTO 00000KT 10SM SCT085 SCT110 20/19 A2983 RMK AO2
KPHN 260235Z AUTO 19005KT 10SM SCT007 SCT070 BKN090 20/19 A2982 RMK AO2
KPHN 260215Z AUTO 19005KT 10SM DZ BKN007 BKN025 OVC070 20/20 A2984 RMK AO2
KPHN 260155Z AUTO 19005KT 7SM RA SCT005 BKN020 OVC075 21/20 A2984 RMK AO2
KPHN 260135Z AUTO 16010G19KT 2SM +RA BKN005 OVC009 21/20 A2984 RMK AO2
KPHN 260115Z AUTO 20007KT 5SM +RA SCT011 OVC070 21/20 A2986 RMK AO2
KPHN 260055Z AUTO 17008KT 10SM DZ SCT060 OVC070 21/20 A2984 RMK AO2
KPHN 260035Z AUTO 17008KT 7SM RA BKN008 BKN048 OVC070 21/20 A2985 RMK AO2
KPHN 260015Z AUTO 17008KT 7SM -RA OVC008 22/20 A2986 RMK AO2
KPHN 252355Z AUTO 18008KT 10SM OVC008 22/20 A2986 RMK AO2
KPHN 252335Z AUTO 17007KT 10SM BKN008 OVC018 22/20 A2987 RMK AO2
KPHN 252315Z AUTO 16006KT 10SM BKN018 OVC110 22/20 A2987 RMK AO2
KPHN 252255Z AUTO 16005KT 10SM SCT010 BKN018 BKN110 22/20 A2986 RMK AO2
KPHN 252235Z AUTO 18004KT 10SM OVC010 22/20 A2986 RMK AO2
KPHN 252215Z AUTO 16008KT 10SM OVC010 22/20 A2986 RMK AO2
KPHN 252155Z AUTO 19009KT 10SM BKN010 BKN065 22/20 A2987 RMK AO2
KPHN 252135Z AUTO 19008KT 10SM BKN010 BKN015 BKN065 22/20 A2987 RMK AO2
KPHN 252115Z AUTO 19011KT 10SM OVC010 22/20 A2988 RMK AO2
KPHN 252055Z AUTO 19008KT 10SM OVC008 22/20 A2988 RMK AO2
KPHN 252035Z AUTO 19008G14KT 10SM OVC008 22/20 A2989 RMK AO2
KPHN 252015Z AUTO 19009KT 10SM OVC008 22/20 A2989 RMK AO2
KPHN 251955Z AUTO 19010KT 10SM BKN008 OVC017 22/21 A2991 RMK AO2
KPHN 251935Z AUTO 19006KT 10SM SCT008 BKN016 OVC021 22/20 A2991 RMK AO2
KPHN 251915Z AUTO 20005KT 4SM -DZ BKN008 BKN016 OVC027 21/20 A2991 RMK AO2
KPHN 251855Z AUTO 20005KT 10SM SCT006 BKN016 OVC029 22/20 A2992 RMK AO2
KPHN 251835Z AUTO 20006KT 7SM BKN016 BKN024 OVC031 21/20 A2992 RMK AO2
KPHN 251815Z AUTO 17006KT 10SM SCT005 BKN020 OVC027 21/20 A2992 RMK AO2
KPHN 251755Z AUTO 18006KT 7SM DZ SCT005 SCT011 OVC032 21/20 A2994 RMK AO2
KPHN 251735Z AUTO 18006KT 3SM +RA SCT005 BKN026 OVC035 20/19 A2995 RMK AO2
KPHN 251715Z AUTO 16007KT 10SM SCT008 OVC026 21/20 A2994 RMK AO2
KPHN 251655Z AUTO 19008KT 10SM BKN008 BKN011 OVC032 21/20 A2995 RMK AO2
KPHN 251635Z AUTO 20006KT 10SM BKN006 BKN010 OVC034 21/20 A2996 RMK AO2
KPHN 251615Z AUTO 23003KT 10SM BKN008 OVC036 21/20 A2995 RMK AO2
KPHN 251555Z AUTO 24004KT 10SM BKN006 BKN020 OVC050 21/20 A2996 RMK AO2
KPHN 251535Z AUTO 17005KT 5SM -RA BKN006 BKN011 OVC046 20/20 A2995 RMK AO2
KPHN 251515Z AUTO 18007KT 5SM DZ SCT006 BKN014 OVC033 20/20 A2996 RMK AO2
KPHN 251455Z AUTO 19006KT 1 3/4SM +RA BKN004 BKN016 OVC026 20/19 A2997 RMK AO2
KPHN 251435Z AUTO 18008KT 2 1/2SM +RA OVC004 20/19 A2997 RMK AO2 VIS 1 1/2V4
KPHN 251415Z AUTO 20004KT 5SM -RA OVC004 20/19 A2997 RMK AO2
KPHN 251355Z AUTO 19007KT 5SM BR OVC004 20/19 A2996 RMK AO2
KPHN 251335Z AUTO 19005KT 5SM BR OVC004 20/19 A2998 RMK AO2
KPHN 251315Z AUTO 21004KT 4SM BR OVC004 20/19 A2997 RMK AO2
KPHN 251255Z AUTO 20004KT 5SM BR OVC004 20/19 A2997 RMK AO2
KPHN 251235Z AUTO 20004KT 4SM BR OVC004 20/19 A2997 RMK AO2
KPHN 251215Z AUTO 19007KT 2SM DZ OVC004 19/19 A2997 RMK AO2
KPHN 251155Z AUTO 19005KT 2SM RA OVC004 19/19 A2997 RMK AO2
KPHN 251135Z AUTO 19005KT 7SM OVC004 19/19 A2997 RMK AO2
KPHN 251115Z AUTO 17007KT 4SM BR OVC004 19/18 A2997 RMK AO2
KPHN 251055Z AUTO 17004KT 3SM BR OVC004 19/18 A2997 RMK AO2
KPHN 251035Z AUTO 18005KT 7SM OVC004 19/18 A2997 RMK AO2
KPHN 251015Z AUTO 17005KT 7SM DZ OVC004 19/18 A2997 RMK AO2
KPHN 250955Z AUTO 17006KT 4SM -DZ OVC004 19/18 A2997 RMK AO2
KPHN 250935Z AUTO 17005KT 4SM -DZ OVC004 19/18 A2997 RMK AO2
KPHN 250915Z AUTO 17008KT 7SM OVC004 19/18 A2997 RMK AO2
KPHN 250855Z AUTO 17008KT 10SM OVC004 18/18 A2997 RMK AO2
KPHN 250835Z AUTO 16007KT 2 1/2SM +DZ OVC004 18/18 A2998 RMK AO2
KPHN 250815Z AUTO 15006KT 2 1/2SM -RA OVC004 18/18 A2998 RMK AO2
KPHN 250755Z AUTO 16007KT 4SM -DZ OVC004 18/18 A2999 RMK AO2
KPHN 250735Z AUTO 16005KT 3SM DZ OVC004 18/17 A2999 RMK AO2
KPHN 250715Z AUTO 15006KT 2 1/2SM +RA OVC004 18/17 A3000 RMK AO2
KPHN 250655Z AUTO 15008KT 2 1/2SM RA OVC004 18/17 A3001 RMK AO2
KPHN 250635Z AUTO 15008KT 3SM +RA OVC006 18/17 A3001 RMK AO2
KPHN 250615Z AUTO 15010G15KT 3SM +DZ OVC006 18/18 A3002 RMK AO2
KPHN 250555Z AUTO 16008KT 5SM DZ OVC006 19/18 A3002 RMK AO2
KPHN 250535Z AUTO 16008KT 7SM RA OVC006 19/18 A3003 RMK AO2
KPHN 250515Z AUTO 16009KT 10SM -RA OVC006 18/18 A3003 RMK AO2
KPHN 250455Z AUTO 16007KT 5SM RA OVC004 18/18 A3004 RMK AO2
KPHN 250435Z AUTO 16007KT 4SM +DZ OVC004 18/17 A3005 RMK AO2
KPHN 250415Z AUTO 15005G15KT 7SM +RA OVC004 18/17 A3006 RMK AO2
KPHN 250355Z AUTO 15008KT 4SM +RA OVC004 18/17 A3006 RMK AO2
KPHN 250335Z AUTO 15007KT 7SM RA OVC006 18/17 A3007 RMK AO2
KPHN 250315Z AUTO 14009G14KT 10SM RA OVC006 18/17 A3007 RMK AO2
KPHN 250255Z AUTO 14009G14KT 7SM RA OVC006 18/17 A3008 RMK AO2
KPHN 250235Z AUTO 14008G15KT 10SM RA OVC008 18/17 A3008 RMK AO2
KPHN 250215Z AUTO 14007G14KT 10SM DZ OVC008 18/17 A3008 RMK AO2
KPHN 250155Z AUTO 14008KT 10SM -DZ OVC010 18/17 A3008 RMK AO2
KPHN 250135Z AUTO 15010KT 10SM -RA OVC012 19/17 A3009 RMK AO2
KPHN 250115Z AUTO 15011G16KT 10SM OVC014 19/17 A3009 RMK AO2
KPHN 250055Z AUTO 15007KT 10SM OVC014 19/17 A3009 RMK AO2
KPHN 250035Z AUTO 13007KT 10SM -RA OVC017 19/17 A3009 RMK AO2
KPHN 250015Z AUTO 13007KT 10SM SCT013 OVC019 19/17 A3009 RMK AO2
KPHN 242355Z AUTO 14008KT 10SM SCT013 OVC019 19/17 A3009 RMK AO2
KPHN 242335Z AUTO 13009G15KT 10SM SCT013 OVC021 19/16 A3009 RMK AO2
KPHN 242315Z AUTO 14008G14KT 10SM SCT012 OVC021 19/16 A3010 RMK AO2
KPHN 242255Z AUTO 13009KT 10SM BKN012 OVC021 19/16 A3010 RMK AO2
KPHN 242235Z AUTO 14012G15KT 10SM OVC012 19/16 A3011 RMK AO2